ADDS TAF Board (Experimental) INFO Settings
IDs: Format: Expanded Condensed

KCVG - Cincinnati Intl, KY, US

Issued at 1130 UTC 27 Sep 2016
Updated at 1350 UTC 27 Sep 2016
Time1252Z 27/14Z 27/15Z 27/16Z 27/17Z 27/18Z 27/19Z 27/20Z 27/21Z 27/22Z 27/23Z 28/00Z 28/01Z 28/02Z
Type OBS PRVL PRVL PRVL PRVL PRVL PRVL PRVL PRVL PRVL PRVL PRVL PRVL PRVL
VIS 10 >6 >6 >6 >6 >6 >6 >6 >6 >6 >6 >6 >6 >6
CIG -- -- -- -- -- -- -- -- -- -- -- -- -- --
Cover CLR SKC SKC SKC SCT SCT SCT SCT SCT SCT SCT SCT SCT SCT
FltCat VFR VFR VFR VFR VFR VFR VFR VFR VFR VFR VFR VFR VFR VFR
WX -- -- -- -- -- -- -- -- -- -- -- -- -- --
WDir 200 210 230 230 240 240 240 240 240 240 220 220 220 220
WSpd 5 6 10 10 12 12 12 12 12 12 6 6 6 6
WGst -- -- -- -- 20 20 20 20 20 20 -- -- -- --
R09/27
XWnd -5 -5 -6 -6 -6 -6 -6 -6 -6 -6 -5 -5 -5 -5
XGst -- -- -- -- -10 -10 -10 -10 -10 -10 -- -- -- --
HWnd -2 -3 -8 -8 -10 -10 -10 -10 -10 -10 -4 -4 -4 -4
HGst -- -- -- -- -17 -17 -17 -17 -17 -17 -- -- -- --
R18/36
XWnd -2 -3 -8 -8 -10 -10 -10 -10 -10 -10 -4 -4 -4 -4
XGst -- -- -- -- -17 -17 -17 -17 -17 -17 -- -- -- --
HWnd 5 5 6 6 6 6 6 6 6 6 5 5 5 5
HGst -- -- -- -- 10 10 10 10 10 10 -- -- -- --

Raw TAF
KCVG 271130Z 2712/2818 21006KT P6SM SKC
  FM271500 23010KT P6SM SKC
  FM271700 24012G20KT P6SM FEW060 SCT250
  FM272300 22006KT P6SM FEW060 SCT250
  FM280900 19005KT P6SM FEW060 BKN200
  FM281400 20008KT P6SM VCSH BKN060


Raw METAR
KCVG 271252Z 20005KT 10SM CLR 12/11 A3000 RMK AO2 SLP155 T01170106
KCVG 271152Z 20005KT 9SM CLR 09/09 A3000 RMK AO2 SLP157 70037 T00940089 10128 20089 55004
KCVG 271052Z 19005KT 10SM CLR 09/09 A3000 RMK AO2 SLP156 T00940089

METAR Board
Radar Display
Forecast Discussion

TAF Board Legend

Potential Impact
Threat None Slight Moderate High
Visibility (sm) ≥5.1 5.1>X≥3 3>X≥1 <1
Ceiling (100 ft) ≥30.1 30.1>X≥10 10>X≥5 <5
Wind Speed (kt) <10 10≤X<20 20≤X<30 ≥30
Wind Gust (kt) <15 15≤X<25 25≤X<35 ≥35
Weather No Wx Reported VCTS,-TS,-FZRA,SN TS,FZRA +TS,+FZRA,+SN